Hlavní strana
METAR-TAF:

METAR-TAF

Letiště :

Bagdád, Irák

zeměpisná šířka: 33-15-45N, zeměpisná délka: 44-14-04E, výška: 35 m

Aktuální stav počasí

Zpráva byla vytvořena před 45 minutami, v 08:00 UTC
Severozápadní vítr 6 kt
Teplota 16°C
Vlhkost vzduchu 82%
Tlak 1021 hPa
Viditelnost: 9000 m

METAR: ORBI 100800Z 31006KT 9000 NSC 16/13 Q1021 NOSIG

Čas: 11:45 (08:45 UTC)

Předpověď počasí

Zpráva byla vytvořena před 3 hodinami a 45 minutami, v 05:00 UTC
Předpověď platná od 10 v 06 UTC do 11 v 06 UTC
Severoseverozápadní vítr 6 kt
Viditelnost: 5000 m
Polojasno ve výšce 4000 ft
kouřmo
Dočasný
od 10 v 06 UTC do 10 v 11 UTC
Viditelnost: 3000 m
Změna
od 10 v 12 UTC do 10 v 14 UTC
Viditelnost: 8000 m

TAF: ORBI 100500Z 1006/1106 33006KT 5000 BR SCT040 TEMPO 1006/1011 3000 BECMG 1012/1014 8000 NSC

Stav a předpovědi počasí z více než 4 000 letišť (zprávy METAR a TAF).

Červené a žluté tečky na mapě představují dostupné meteorologické stanice.

Když kurzor umístíte na tečku, zobrazí se název stanice.

Pak kliknutím zobrazíte stav a předpověď počasí.

Chcete-li změnit mapu, kliknutím na zelené tlačítko se znaménkem +mapu přiblížíte, kliknutím na zelené tlačítko se znaménkem – mapu oddálíte a kliknutím na zelené šipky přejdete na sousední mapy.


METAR-TAF: